createdAt,value
2019-03-29T00:00:07.627Z,96625.40
2019-03-29T00:02:37.050Z,96624.81
2019-03-29T00:05:06.308Z,96629.62
2019-03-29T00:07:39.978Z,96633.95
2019-03-29T00:10:07.211Z,96638.19
2019-03-29T00:12:36.348Z,96642.81
2019-03-29T00:15:05.901Z,96639.64
2019-03-29T00:17:35.078Z,96638.35
2019-03-29T00:20:06.209Z,96631.76
2019-03-29T00:22:35.282Z,96631.58
2019-03-29T00:25:04.554Z,96631.58
2019-03-29T00:27:33.700Z,96628.36
2019-03-29T00:30:02.870Z,96627.86
2019-03-29T00:32:32.258Z,96628.47
2019-03-29T00:35:01.402Z,96622.66
2019-03-29T00:37:30.517Z,96622.66
2019-03-29T00:39:59.910Z,96619.59
2019-03-29T00:42:29.042Z,96611.48
2019-03-29T00:44:58.169Z,96612.16
2019-03-29T00:47:27.644Z,96609.85
2019-03-29T00:49:56.824Z,96610.42
2019-03-29T00:52:26.021Z,96609.53
2019-03-29T00:54:55.410Z,96602.76
2019-03-29T00:57:25.294Z,96602.76
2019-03-29T00:59:54.444Z,96597.15
2019-03-29T01:02:24.409Z,96597.15
2019-03-29T01:04:54.876Z,96601.28
2019-03-29T01:07:24.138Z,96587.95
2019-03-29T01:09:53.275Z,96592.50
2019-03-29T01:12:22.673Z,96592.50
2019-03-29T01:14:52.612Z,96586.98
2019-03-29T01:17:22.030Z,96583.78
2019-03-29T01:19:51.248Z,96579.44
2019-03-29T01:22:20.425Z,96579.44
2019-03-29T01:24:49.889Z,96569.73
2019-03-29T01:27:19.271Z,96576.27
2019-03-29T01:29:48.570Z,96576.21
2019-03-29T01:32:17.810Z,96578.25
2019-03-29T01:34:47.692Z,96572.08
2019-03-29T01:37:16.950Z,96572.08
2019-03-29T01:39:46.361Z,96569.68
2019-03-29T01:42:15.526Z,96560.91
2019-03-29T01:44:44.965Z,96564.91
2019-03-29T01:47:14.427Z,96560.50
2019-03-29T01:49:43.607Z,96560.50
2019-03-29T01:52:12.795Z,96552.82
2019-03-29T01:54:41.959Z,96560.30
2019-03-29T01:57:11.172Z,96562.22
2019-03-29T01:59:40.554Z,96557.08
2019-03-29T02:02:09.949Z,96557.08
2019-03-29T02:04:39.109Z,96549.42
2019-03-29T02:07:08.937Z,96549.42
2019-03-29T02:09:38.344Z,96548.97
2019-03-29T02:12:07.584Z,96534.43
2019-03-29T02:14:37.071Z,96534.43
2019-03-29T02:17:06.199Z,96529.30
2019-03-29T02:19:35.361Z,96516.40
2019-03-29T02:22:04.568Z,96521.55
2019-03-29T02:24:34.072Z,96526.94
2019-03-29T02:27:03.759Z,96526.94
2019-03-29T02:29:32.885Z,96524.27
2019-03-29T02:32:02.037Z,96520.09
2019-03-29T02:34:32.169Z,96520.09
2019-03-29T02:37:02.211Z,96521.64
2019-03-29T02:39:31.774Z,96521.64
2019-03-29T02:42:00.944Z,96525.16
2019-03-29T02:44:30.306Z,96521.89
2019-03-29T02:46:59.791Z,96517.83
2019-03-29T02:49:28.957Z,96518.25
2019-03-29T02:51:58.123Z,96518.25
2019-03-29T02:54:27.271Z,96521.45
2019-03-29T02:56:56.444Z,96522.64
2019-03-29T02:59:25.944Z,96513.66
2019-03-29T03:01:55.805Z,96508.67
2019-03-29T03:04:24.983Z,96516.19
2019-03-29T03:06:54.168Z,96504.70
2019-03-29T03:09:23.573Z,96511.66
2019-03-29T03:11:52.767Z,96504.64
2019-03-29T03:14:22.250Z,96510.09
2019-03-29T03:16:51.522Z,96507.08
2019-03-29T03:19:20.969Z,96500.22
2019-03-29T03:21:50.380Z,96498.22
2019-03-29T03:24:19.939Z,96502.73
2019-03-29T03:26:49.369Z,96506.05
2019-03-29T03:29:18.533Z,96509.63
2019-03-29T03:31:47.677Z,96508.52
2019-03-29T03:34:17.085Z,96500.42
2019-03-29T03:36:46.225Z,96500.06
2019-03-29T03:39:30.673Z,96499.61
2019-03-29T03:41:46.466Z,96500.70
2019-03-29T03:44:16.201Z,96497.55
2019-03-29T03:46:45.376Z,96499.28
2019-03-29T03:49:14.553Z,96500.16
2019-03-29T03:51:43.849Z,96493.79
2019-03-29T03:54:13.058Z,96499.39
2019-03-29T03:56:42.735Z,96500.54
2019-03-29T03:59:12.098Z,96497.63
2019-03-29T04:01:41.298Z,96498.20
2019-03-29T04:04:10.546Z,96494.75
2019-03-29T04:06:39.896Z,96490.75
2019-03-29T04:09:09.298Z,96491.28
2019-03-29T04:11:38.481Z,96493.50
2019-03-29T04:14:07.905Z,96489.41
2019-03-29T04:16:37.081Z,96490.75
2019-03-29T04:19:06.227Z,96494.78
2019-03-29T04:21:35.357Z,96487.51
2019-03-29T04:24:04.733Z,96489.77
2019-03-29T04:26:33.892Z,96487.61
2019-03-29T04:29:05.329Z,96483.55
2019-03-29T04:31:34.865Z,96483.50
2019-03-29T04:34:04.259Z,96486.35
2019-03-29T04:36:34.144Z,96488.95
2019-03-29T04:39:05.603Z,96490.71
2019-03-29T04:41:34.733Z,96494.78
2019-03-29T04:44:04.303Z,96492.14
2019-03-29T04:46:33.434Z,96491.91
2019-03-29T04:49:02.653Z,96495.34
2019-03-29T04:51:31.829Z,96489.03
2019-03-29T04:54:01.008Z,96491.84
2019-03-29T04:56:30.642Z,96493.48
2019-03-29T04:58:59.816Z,96493.71
2019-03-29T05:01:28.978Z,96489.00
2019-03-29T05:03:58.228Z,96495.97
2019-03-29T05:06:27.719Z,96491.95
2019-03-29T05:08:56.960Z,96495.55
2019-03-29T05:11:26.131Z,96487.85
2019-03-29T05:13:55.333Z,96492.70
2019-03-29T05:16:24.540Z,96492.92
2019-03-29T05:18:53.726Z,96498.39
2019-03-29T05:21:22.893Z,96499.98
2019-03-29T05:23:52.127Z,96499.31
2019-03-29T05:26:21.289Z,96499.19
2019-03-29T05:28:50.874Z,96496.05
2019-03-29T05:31:20.019Z,96501.50
2019-03-29T05:33:49.321Z,96515.59
2019-03-29T05:36:18.470Z,96506.03
2019-03-29T05:38:47.876Z,96506.58
2019-03-29T05:41:17.278Z,96502.84
2019-03-29T05:43:46.538Z,96498.77
2019-03-29T05:46:16.508Z,96497.84
2019-03-29T05:48:45.629Z,96488.14
2019-03-29T05:51:14.859Z,96498.08
2019-03-29T05:53:44.610Z,96497.14
2019-03-29T05:56:14.811Z,96495.30
2019-03-29T05:58:44.564Z,96488.95
2019-03-29T06:01:13.943Z,96491.22
2019-03-29T06:03:43.464Z,96491.59
2019-03-29T06:06:12.588Z,96493.48
2019-03-29T06:08:41.796Z,96480.95
2019-03-29T06:11:11.196Z,96483.20
2019-03-29T06:13:40.349Z,96483.98
2019-03-29T06:16:09.496Z,96486.38
2019-03-29T06:18:38.740Z,96481.92
2019-03-29T06:21:07.887Z,96492.28
2019-03-29T06:23:37.186Z,96488.39
2019-03-29T06:26:06.502Z,96490.10
2019-03-29T06:28:35.745Z,96484.63
2019-03-29T06:31:05.238Z,96476.25
2019-03-29T06:33:34.670Z,96483.55
2019-03-29T06:36:05.448Z,96473.30
2019-03-29T06:38:35.549Z,96470.88
2019-03-29T06:41:04.760Z,96468.13
2019-03-29T06:43:34.117Z,96463.61
2019-03-29T06:46:03.576Z,96458.20
2019-03-29T06:48:32.946Z,96460.07
2019-03-29T06:51:02.378Z,96460.25
2019-03-29T06:53:31.526Z,96451.70
2019-03-29T06:56:00.934Z,96450.05
2019-03-29T06:58:30.082Z,96458.70
2019-03-29T07:00:59.292Z,96453.34
2019-03-29T07:03:28.973Z,96458.09
2019-03-29T07:05:58.248Z,96454.25
2019-03-29T07:08:27.694Z,96458.96
2019-03-29T07:10:56.819Z,96454.74
2019-03-29T07:13:27.276Z,96448.02
2019-03-29T07:15:56.432Z,96444.02
2019-03-29T07:18:25.580Z,96443.56
2019-03-29T07:20:55.134Z,96450.49
2019-03-29T07:23:24.614Z,96447.27
2019-03-29T07:25:56.399Z,96441.84
2019-03-29T07:28:24.940Z,96440.83
2019-03-29T07:30:54.389Z,96448.03
2019-03-29T07:33:23.597Z,96448.00
2019-03-29T07:35:52.984Z,96443.36
2019-03-29T07:38:22.166Z,96441.77
2019-03-29T07:40:51.363Z,96444.98
2019-03-29T07:43:26.515Z,96450.23
2019-03-29T07:45:55.682Z,96442.67
2019-03-29T07:48:25.013Z,96445.11
2019-03-29T07:50:54.408Z,96450.47
2019-03-29T07:53:23.815Z,96447.91
2019-03-29T07:55:53.701Z,96447.39
2019-03-29T07:58:23.256Z,96444.45
2019-03-29T08:00:52.461Z,96437.98
2019-03-29T08:03:23.474Z,96439.99
2019-03-29T08:05:53.227Z,96441.80
2019-03-29T08:08:25.737Z,96436.11
2019-03-29T08:10:54.279Z,96450.27
2019-03-29T08:13:23.465Z,96446.42
2019-03-29T08:15:52.927Z,96450.34
2019-03-29T08:18:22.104Z,96455.33
2019-03-29T08:20:51.582Z,96441.11
2019-03-29T08:23:20.748Z,96443.78
2019-03-29T08:25:50.072Z,96439.50
2019-03-29T08:28:19.512Z,96437.31
2019-03-29T08:30:48.639Z,96433.86
2019-03-29T08:33:18.274Z,96426.48
2019-03-29T08:35:47.607Z,96434.68
2019-03-29T08:38:17.077Z,96436.16
2019-03-29T08:40:46.309Z,96435.52
2019-03-29T08:43:15.463Z,96439.73
2019-03-29T08:45:44.652Z,96440.89
2019-03-29T08:48:13.893Z,96440.30
2019-03-29T08:50:43.074Z,96434.89
2019-03-29T08:53:12.246Z,96437.88
2019-03-29T08:55:46.010Z,96436.07
2019-03-29T08:58:13.141Z,96435.50
2019-03-29T09:00:42.641Z,96439.88
2019-03-29T09:07:09.779Z,96428.24
2019-03-29T09:09:39.309Z,96429.48
2019-03-29T09:12:14.783Z,96424.64
2019-03-29T09:14:40.760Z,96424.43
2019-03-29T09:17:11.553Z,96423.95
2019-03-29T09:19:40.824Z,96423.58
2019-03-29T09:22:10.160Z,96414.81
2019-03-29T09:24:39.605Z,96416.33
2019-03-29T09:27:09.389Z,96416.40
2019-03-29T09:29:38.864Z,96416.56
2019-03-29T09:32:09.211Z,96415.70
2019-03-29T09:34:40.595Z,96410.90
2019-03-29T09:37:09.986Z,96414.03
2019-03-29T09:39:39.668Z,96407.00
2019-03-29T09:42:10.108Z,96409.11
2019-03-29T09:44:39.701Z,96405.02
2019-03-29T09:47:08.919Z,96409.81
2019-03-29T09:49:38.993Z,96406.19
2019-03-29T09:52:08.672Z,96393.83
2019-03-29T09:54:37.966Z,96399.23
2019-03-29T09:57:10.077Z,96397.67
2019-03-29T09:59:39.780Z,96395.58
2019-03-29T10:02:09.113Z,96392.84
2019-03-29T10:04:38.354Z,96393.47
2019-03-29T10:07:07.887Z,96385.35
2019-03-29T10:09:39.635Z,96388.19
2019-03-29T10:12:09.157Z,96383.30
2019-03-29T10:14:38.492Z,96383.64
2019-03-29T10:17:07.736Z,96374.16
2019-03-29T10:19:39.237Z,96371.66
2019-03-29T10:22:10.081Z,96370.91
2019-03-29T10:24:39.660Z,96370.16
2019-03-29T10:27:12.591Z,96368.80
2019-03-29T10:29:46.887Z,96362.51
2019-03-29T10:32:19.218Z,96356.66
2019-03-29T10:34:52.730Z,96357.66
2019-03-29T10:37:22.949Z,96362.15
2019-03-29T10:39:52.516Z,96356.31
2019-03-29T10:42:24.105Z,96349.70
2019-03-29T10:44:53.711Z,96350.95
2019-03-29T10:47:42.041Z,96346.77
2019-03-29T10:50:01.861Z,96342.52
2019-03-29T10:52:33.701Z,96331.83
2019-03-29T10:55:09.282Z,96341.28
2019-03-29T10:57:39.523Z,96336.98
2019-03-29T11:00:13.192Z,96340.82
2019-03-29T11:02:42.776Z,96335.14
2019-03-29T11:05:12.185Z,96336.39
2019-03-29T11:07:41.922Z,96332.45
2019-03-29T11:10:15.235Z,96331.81
2019-03-29T11:12:44.894Z,96334.70
2019-03-29T11:15:14.298Z,96325.05
2019-03-29T11:17:46.023Z,96322.03
2019-03-29T11:20:18.514Z,96313.25
2019-03-29T11:22:46.314Z,96307.74
2019-03-29T11:25:15.758Z,96304.64
2019-03-29T11:27:45.015Z,96304.91
2019-03-29T11:30:14.578Z,96305.29
2019-03-29T11:32:44.124Z,96294.95
2019-03-29T11:35:13.514Z,96294.07
2019-03-29T11:37:43.067Z,96291.95
2019-03-29T11:40:14.037Z,96288.47
2019-03-29T11:42:43.362Z,96283.89
2019-03-29T11:45:13.600Z,96284.27
2019-03-29T11:47:42.905Z,96283.21
2019-03-29T11:50:12.503Z,96279.32
2019-03-29T11:52:43.018Z,96283.50
2019-03-29T11:55:12.437Z,96279.59
2019-03-29T11:57:41.796Z,96281.62
2019-03-29T12:00:11.391Z,96276.50
2019-03-29T12:02:40.909Z,96270.44
2019-03-29T12:05:10.412Z,96273.58
2019-03-29T12:07:40.395Z,96264.78
2019-03-29T12:10:10.167Z,96259.77
2019-03-29T12:12:40.016Z,96262.80
2019-03-29T12:15:09.714Z,96264.17
2019-03-29T12:17:39.788Z,96263.28
2019-03-29T12:20:09.618Z,96255.47
2019-03-29T12:22:40.124Z,96256.23
2019-03-29T12:25:09.502Z,96259.70
2019-03-29T12:27:40.057Z,96259.44
2019-03-29T12:30:10.211Z,96254.55
2019-03-29T12:32:39.801Z,96245.69
2019-03-29T12:35:10.228Z,96249.39
2019-03-29T12:37:39.567Z,96245.88
2019-03-29T12:40:09.440Z,96249.73
2019-03-29T12:42:38.622Z,96237.75
2019-03-29T12:45:09.017Z,96238.98
2019-03-29T12:47:38.228Z,96228.95
2019-03-29T12:50:08.563Z,96231.81
2019-03-29T12:52:38.231Z,96228.48
2019-03-29T12:55:08.293Z,96218.55
2019-03-29T12:57:39.086Z,96228.84
2019-03-29T13:00:09.978Z,96222.98
2019-03-29T13:02:39.381Z,96217.37
2019-03-29T13:05:08.834Z,96212.52
2019-03-29T13:07:38.273Z,96213.25
2019-03-29T13:10:08.134Z,96211.23
2019-03-29T13:12:37.461Z,96211.38
2019-03-29T13:15:06.973Z,96202.70
2019-03-29T13:17:36.750Z,96198.23
2019-03-29T13:20:06.843Z,96191.85
2019-03-29T13:22:36.262Z,96184.05
2019-03-29T13:25:07.521Z,96186.68
2019-03-29T13:27:37.990Z,96186.52
2019-03-29T13:30:08.367Z,96180.67
2019-03-29T13:32:37.816Z,96170.88
2019-03-29T13:35:08.000Z,96171.09
2019-03-29T13:37:37.437Z,96172.88
2019-03-29T13:40:08.566Z,96166.44
2019-03-29T13:42:37.843Z,96156.67
2019-03-29T13:45:07.563Z,96156.11
2019-03-29T13:47:36.984Z,96150.02
2019-03-29T13:50:08.129Z,96142.66
2019-03-29T13:52:38.390Z,96144.31
2019-03-29T13:55:08.448Z,96144.59
2019-03-29T13:57:37.845Z,96138.16
2019-03-29T14:00:08.782Z,96133.75
2019-03-29T14:02:38.327Z,96142.58
2019-03-29T14:05:10.692Z,96134.45
2019-03-29T14:07:39.964Z,96131.52
2019-03-29T14:10:10.345Z,96130.75
2019-03-29T14:12:39.888Z,96122.93
2019-03-29T14:15:10.419Z,96126.81
2019-03-29T14:17:40.168Z,96118.95
2019-03-29T14:20:11.185Z,96117.03
2019-03-29T14:22:40.417Z,96110.05
2019-03-29T14:25:10.203Z,96112.56
2019-03-29T14:27:42.364Z,96110.86
2019-03-29T14:30:15.546Z,96110.89
2019-03-29T14:32:46.895Z,96104.09
2019-03-29T14:35:17.686Z,96104.98
2019-03-29T14:37:47.211Z,96105.87
2019-03-29T14:40:17.002Z,96097.19
2019-03-29T14:42:47.064Z,96096.93
2019-03-29T14:45:16.618Z,96096.23
2019-03-29T14:47:46.015Z,96091.37
2019-03-29T14:50:16.166Z,96096.47
2019-03-29T14:52:45.488Z,96093.67
2019-03-29T14:55:14.986Z,96085.38
2019-03-29T14:57:44.526Z,96085.62
2019-03-29T15:00:15.186Z,96078.09
2019-03-29T15:02:44.523Z,96076.69
2019-03-29T15:05:14.172Z,96078.30
2019-03-29T15:07:44.750Z,96080.97
2019-03-29T15:10:30.785Z,96074.90
2019-03-29T15:13:01.006Z,96063.94
2019-03-29T15:15:31.225Z,96065.94
2019-03-29T15:18:03.707Z,96057.19
2019-03-29T15:20:33.305Z,96052.02
2019-03-29T15:23:02.914Z,96049.59
2019-03-29T15:25:32.788Z,96050.02
2019-03-29T15:28:02.188Z,96052.27
2019-03-29T15:30:31.913Z,96044.14
2019-03-29T15:33:01.674Z,96045.05
2019-03-29T15:35:31.598Z,96035.38
2019-03-29T15:38:01.233Z,96040.66
2019-03-29T15:40:31.643Z,96036.14
2019-03-29T15:43:01.899Z,96029.63
2019-03-29T15:45:31.573Z,96024.20
2019-03-29T15:48:06.251Z,96014.89
2019-03-29T15:50:35.871Z,96017.59
2019-03-29T15:53:06.720Z,96013.81
2019-03-29T15:55:36.160Z,96014.64
2019-03-29T15:58:08.035Z,96015.73
2019-03-29T16:00:37.398Z,96016.98
2019-03-29T16:03:07.297Z,96015.56
2019-03-29T16:05:37.732Z,96008.30
2019-03-29T16:08:07.281Z,96004.80
2019-03-29T16:10:37.082Z,96008.03
2019-03-29T16:13:06.944Z,96007.08
2019-03-29T16:15:38.513Z,95996.74
2019-03-29T16:18:08.235Z,95998.24
2019-03-29T16:20:38.076Z,95996.91
2019-03-29T16:23:07.783Z,95996.37
2019-03-29T16:25:37.141Z,95990.05
2019-03-29T16:28:06.469Z,95990.94
2019-03-29T16:30:36.261Z,95997.42
2019-03-29T16:33:05.644Z,95992.02
2019-03-29T16:35:34.961Z,95992.25
2019-03-29T16:38:14.609Z,95984.34
2019-03-29T16:40:43.915Z,95989.08
2019-03-29T16:43:13.281Z,95982.79
2019-03-29T16:45:48.105Z,95985.70
2019-03-29T16:48:17.203Z,95982.63
2019-03-29T16:50:47.666Z,95982.30
2019-03-29T16:53:16.926Z,95984.46
2019-03-29T16:55:47.571Z,95979.45
2019-03-29T16:58:17.070Z,95978.78
2019-03-29T17:00:46.396Z,95979.19
2019-03-29T17:03:16.007Z,95983.02
2019-03-29T17:05:45.423Z,95989.47
2019-03-29T17:08:14.879Z,95983.27
2019-03-29T17:10:44.262Z,95980.06
2019-03-29T17:13:13.630Z,95978.53
2019-03-29T17:15:43.252Z,95978.93
2019-03-29T17:18:12.619Z,95981.13
2019-03-29T17:20:42.183Z,95975.93
2019-03-29T17:23:11.684Z,95972.41
2019-03-29T17:25:41.293Z,95972.94
2019-03-29T17:28:11.960Z,95972.85
2019-03-29T17:30:49.852Z,95972.52
2019-03-29T17:33:22.299Z,95976.76
2019-03-29T17:35:50.511Z,95977.97
2019-03-29T17:38:19.788Z,95982.63
2019-03-29T17:40:51.538Z,95975.59
2019-03-29T17:43:21.089Z,95973.20
2019-03-29T17:45:50.435Z,95979.66
2019-03-29T17:48:20.559Z,95976.19
2019-03-29T17:50:50.228Z,95978.77
2019-03-29T17:53:19.671Z,95977.23
2019-03-29T17:55:48.972Z,95981.53
2019-03-29T17:58:18.303Z,95977.96
2019-03-29T18:00:47.789Z,95986.69
2019-03-29T18:03:17.404Z,95987.44
2019-03-29T18:05:48.100Z,95981.35
2019-03-29T18:08:17.414Z,95986.94
2019-03-29T18:10:47.658Z,95988.76
2019-03-29T18:13:17.225Z,95990.98
2019-03-29T18:15:47.131Z,95993.82
2019-03-29T18:18:16.593Z,95989.05
2019-03-29T18:20:46.183Z,95992.91
2019-03-29T18:23:15.687Z,95992.00
2019-03-29T18:25:45.015Z,95991.44
2019-03-29T18:28:14.590Z,95992.61
2019-03-29T18:30:44.504Z,95987.90
2019-03-29T18:33:15.290Z,95994.09
2019-03-29T18:35:45.454Z,95996.65
2019-03-29T18:38:15.564Z,95992.97
2019-03-29T18:40:44.875Z,95990.45
2019-03-29T18:43:15.650Z,95995.95
2019-03-29T18:45:45.230Z,95993.92
2019-03-29T18:48:15.195Z,95990.97
2019-03-29T18:50:45.501Z,95991.31
2019-03-29T18:53:15.750Z,96002.88
2019-03-29T18:55:45.113Z,96002.61
2019-03-29T18:58:14.549Z,96001.03
2019-03-29T19:00:43.907Z,96001.30
2019-03-29T19:03:13.172Z,96000.43
2019-03-29T19:05:42.528Z,96005.41
2019-03-29T19:08:11.958Z,95996.31
2019-03-29T19:10:43.939Z,96004.69
2019-03-29T19:13:13.602Z,96002.28
2019-03-29T19:15:43.834Z,95991.63
2019-03-29T19:18:13.216Z,95995.48
2019-03-29T19:20:42.836Z,95994.19
2019-03-29T19:23:12.154Z,95991.81
2019-03-29T19:25:42.357Z,95993.31
2019-03-29T19:28:11.618Z,95993.31
2019-03-29T19:30:41.423Z,95992.77
2019-03-29T19:33:10.692Z,95993.80
2019-03-29T19:35:40.003Z,95986.55
2019-03-29T19:38:09.781Z,95990.48
2019-03-29T19:40:39.491Z,95990.48
2019-03-29T19:43:10.218Z,95988.11
2019-03-29T19:45:39.519Z,95975.05
2019-03-29T19:48:09.063Z,95988.46
2019-03-29T19:50:38.584Z,95983.19
2019-03-29T19:53:07.985Z,95981.88
2019-03-29T19:55:37.666Z,95987.09
2019-03-29T19:58:07.530Z,95981.59
2019-03-29T20:00:38.595Z,95981.59
2019-03-29T20:03:08.300Z,95976.36
2019-03-29T20:05:37.730Z,95976.36
2019-03-29T20:08:07.299Z,95969.14
2019-03-29T20:10:37.052Z,95975.89
2019-03-29T20:13:06.384Z,95977.02
2019-03-29T20:15:35.651Z,95976.25
2019-03-29T20:18:05.216Z,95980.50
2019-03-29T20:20:35.317Z,95973.74
2019-03-29T20:23:10.847Z,95973.74
2019-03-29T20:25:40.079Z,95970.30
2019-03-29T20:28:11.004Z,95974.94
2019-03-29T20:30:40.320Z,95972.45
2019-03-29T20:33:13.048Z,95964.13
2019-03-29T20:35:40.506Z,95963.36
2019-03-29T20:38:09.705Z,95963.03
2019-03-29T20:40:38.961Z,95958.00
2019-03-29T20:43:08.254Z,95963.55
2019-03-29T20:45:38.466Z,95955.27
2019-03-29T20:48:07.655Z,95953.80
2019-03-29T20:50:36.958Z,95953.09
2019-03-29T20:53:06.316Z,95954.75
2019-03-29T20:55:36.757Z,95962.52
2019-03-29T20:58:06.031Z,95959.00
2019-03-29T21:00:35.322Z,95950.67
2019-03-29T21:03:05.110Z,95956.63
2019-03-29T21:05:34.360Z,95948.16
2019-03-29T21:08:03.690Z,95954.16
2019-03-29T21:10:32.827Z,95960.87
2019-03-29T21:13:02.330Z,95947.74
2019-03-29T21:15:31.909Z,95951.94
2019-03-29T21:18:01.123Z,95943.66
2019-03-29T21:20:30.306Z,95946.00
2019-03-29T21:23:00.563Z,95950.73
2019-03-29T21:25:30.067Z,95945.78
2019-03-29T21:27:59.275Z,95951.38
2019-03-29T21:30:28.513Z,95943.63
2019-03-29T21:32:58.408Z,95949.19
2019-03-29T21:35:27.856Z,95946.42
2019-03-29T21:37:57.148Z,95938.31
2019-03-29T21:40:26.327Z,95948.72
2019-03-29T21:42:57.219Z,95945.81
2019-03-29T21:45:29.061Z,95944.97
2019-03-29T21:48:08.443Z,95944.45
2019-03-29T21:50:28.626Z,95941.34
2019-03-29T21:52:57.870Z,95937.50
2019-03-29T21:55:27.063Z,95936.38
2019-03-29T21:57:56.355Z,95939.03
2019-03-29T22:00:27.813Z,95931.89
2019-03-29T22:02:57.057Z,95932.73
2019-03-29T22:05:27.243Z,95933.05
2019-03-29T22:07:56.435Z,95932.33
2019-03-29T22:10:25.591Z,95927.85
2019-03-29T22:12:55.446Z,95927.70
2019-03-29T22:15:24.970Z,95925.25
2019-03-29T22:17:54.297Z,95921.78
2019-03-29T22:20:23.549Z,95923.98
2019-03-29T22:22:52.762Z,95923.66
2019-03-29T22:25:22.174Z,95919.67
2019-03-29T22:27:51.393Z,95923.31
2019-03-29T22:30:22.046Z,95915.45
2019-03-29T22:32:51.841Z,95905.12
2019-03-29T22:35:21.150Z,95914.48
2019-03-29T22:37:50.336Z,95912.55
2019-03-29T22:40:20.236Z,95906.67
2019-03-29T22:42:49.467Z,95912.88
2019-03-29T22:45:18.753Z,95910.92
2019-03-29T22:47:49.917Z,95906.66
2019-03-29T22:50:19.474Z,95901.27
2019-03-29T22:52:48.973Z,95904.38
2019-03-29T22:55:18.275Z,95897.92
2019-03-29T22:57:47.441Z,95898.39
2019-03-29T23:00:22.825Z,95886.77
2019-03-29T23:02:53.007Z,95882.09
2019-03-29T23:05:22.410Z,95883.36
2019-03-29T23:07:51.878Z,95877.02
2019-03-29T23:10:21.032Z,95869.60
2019-03-29T23:12:50.234Z,95878.93
2019-03-29T23:15:19.470Z,95873.69
2019-03-29T23:17:49.395Z,95871.58
2019-03-29T23:20:18.686Z,95864.06
2019-03-29T23:22:47.882Z,95866.82
2019-03-29T23:25:21.312Z,95855.22
2019-03-29T23:27:50.550Z,95856.25
2019-03-29T23:30:19.873Z,95859.29
2019-03-29T23:32:49.633Z,95852.97
2019-03-29T23:35:19.132Z,95856.22
2019-03-29T23:37:48.276Z,95852.81
2019-03-29T23:40:17.534Z,95851.41
2019-03-29T23:42:47.214Z,95846.48
2019-03-29T23:45:16.388Z,95849.41
2019-03-29T23:47:45.977Z,95844.60
2019-03-29T23:50:15.327Z,95838.77
2019-03-29T23:52:44.501Z,95842.55
2019-03-29T23:55:13.700Z,95837.28
2019-03-29T23:57:42.954Z,95837.58
